»·PEaware :: AAL2321 KSAN-KDFW

AAL2321 :: KSAN-KDFW

FLIGHT INFORMATION

Flight Status: Arrived
Operator:
American Airlines
More flights by this operator :: More flights under this callsign
Pilot: Drew L. (13237)
Aircraft: BOEING 737-800
(B738)
More flights by this aircraft type
Origin: KSAN San Diego Intl-Lindbergh
United States
Destination: KDFW Dallas-Ft Worth Intl
United States
More flights between these airports :: More routes between these airports
Route: ZZOOO2 IPL J18 GBN ONRTH ONM TXO TURKI JOVEM4
File this flight plan on PilotEdge
Remarks: PBN / A1B1C1D1S1S2 DOF / 180415 REG / N806SB EET / KZAB0026 KZFW0137 OPR / AAL PER / C RMK / TCAS SIMBRIEF
Altitude:
(Current/Filed)
35,000ft
Speed:
(Current/Filed)
461kts
Departed: 14-Apr-18 05:34 PM
Arrived: 14-Apr-18 08:02 PM
Distance/Time
Traveled:
1015nm/2:28
Distance/Time
To Go:
Arrived

Flight Plot

Page will automatically refresh every two minutes.

Flight plan parsing failed; only flown route is shown


Map Options




Map Legend


Flown Route
Filed Route
Departure Airport
Arrival Airport
Navaid (VOR, NDB)
Fix

Horizontal Profiles

Position Reports

Time Latitude Longitude Heading Altitude Ground
Speed
14-Apr-18 17:07 32.734520 -117.203412 230 25ft 0kts
14-Apr-18 17:08 32.734520 -117.203412 230 24ft 0kts
14-Apr-18 17:09 32.734520 -117.203412 230 24ft 0kts
14-Apr-18 17:10 32.734520 -117.203412 230 24ft 0kts
14-Apr-18 17:11 32.734520 -117.203412 230 24ft 0kts
14-Apr-18 17:12 32.734520 -117.203412 230 24ft 0kts
14-Apr-18 17:13 32.734520 -117.203412 230 24ft 0kts
14-Apr-18 17:14 32.734520 -117.203412 230 24ft 0kts
14-Apr-18 17:15 32.734520 -117.203412 230 24ft 0kts
14-Apr-18 17:16 32.734520 -117.203412 230 24ft 0kts
14-Apr-18 17:17 32.734520 -117.203412 230 24ft 0kts
14-Apr-18 17:18 32.734520 -117.203412 230 24ft 0kts
14-Apr-18 17:19 32.734520 -117.203412 230 24ft 0kts
14-Apr-18 17:20 32.734520 -117.203412 230 24ft 0kts
14-Apr-18 17:21 32.734520 -117.203412 230 24ft 0kts
14-Apr-18 17:22 32.734520 -117.203412 230 25ft 0kts
14-Apr-18 17:23 32.734709 -117.203139 237 25ft 2kts
14-Apr-18 17:24 32.734498 -117.202587 350 25ft 2kts
14-Apr-18 17:25 32.734301 -117.202614 16 25ft 0kts
14-Apr-18 17:26 32.734301 -117.202614 16 24ft 0kts
14-Apr-18 17:27 32.734301 -117.202614 16 24ft 0kts
14-Apr-18 17:28 32.734301 -117.202614 16 24ft 0kts
14-Apr-18 17:29 32.735020 -117.200034 107 25ft 20kts
14-Apr-18 17:30 32.732706 -117.190420 106 25ft 35kts
14-Apr-18 17:31 32.730200 -117.180071 105 25ft 33kts
14-Apr-18 17:32 32.730326 -117.176324 285 25ft 19kts
14-Apr-18 17:33 32.739182 -117.211712 289 437ft 172kts
14-Apr-18 17:34 32.752585 -117.266477 284 2807ft 175kts
14-Apr-18 17:35 32.731428 -117.303863 166 4887ft 180kts
14-Apr-18 17:36 32.682160 -117.276664 153 6284ft 221kts
14-Apr-18 17:37 32.628694 -117.226912 109 7662ft 281kts
14-Apr-18 17:38 32.619114 -117.131797 95 9743ft 304kts
14-Apr-18 17:39 32.610504 -117.026794 95 11288ft 348kts
14-Apr-18 17:40 32.601134 -116.905402 85 13047ft 384kts
14-Apr-18 17:41 32.627586 -116.773192 76 14359ft 433kts
14-Apr-18 17:42 32.642962 -116.631279 81 17449ft 436kts
14-Apr-18 17:43 32.657506 -116.484183 81 19474ft 460kts
14-Apr-18 17:44 32.671888 -116.335434 81 22092ft 461kts
14-Apr-18 17:45 32.686294 -116.185280 81 24439ft 460kts
14-Apr-18 17:46 32.700516 -116.035052 81 26576ft 459kts
14-Apr-18 17:47 32.715126 -115.879054 81 27257ft 492kts
14-Apr-18 17:48 32.729946 -115.717664 81 29101ft 493kts
14-Apr-18 17:49 32.744525 -115.556598 81 30870ft 491kts
14-Apr-18 17:50 32.752668 -115.395798 86 32483ft 489kts
14-Apr-18 17:51 32.756062 -115.238388 87 33837ft 486kts
14-Apr-18 17:52 32.759645 -115.078578 87 35073ft 483kts
14-Apr-18 17:53 32.763082 -114.915430 87 35105ft 503kts
14-Apr-18 17:54 32.766154 -114.749562 87 35105ft 504kts
14-Apr-18 17:55 32.769242 -114.583100 88 35107ft 504kts
14-Apr-18 17:56 32.771331 -114.416469 88 35109ft 504kts
14-Apr-18 17:57 32.772748 -114.299894 88 35202ft 504kts
14-Apr-18 17:58 32.774895 -114.133235 88 35208ft 504kts
14-Apr-18 17:59 32.777117 -113.967468 83 35203ft 504kts
14-Apr-18 18:00 32.799329 -113.803789 78 35211ft 503kts
14-Apr-18 18:01 32.822951 -113.639762 78 35214ft 503kts
14-Apr-18 18:02 32.846018 -113.476364 78 35111ft 503kts
14-Apr-18 18:03 32.867805 -113.319659 79 35097ft 504kts
14-Apr-18 18:04 32.890530 -113.155139 79 35099ft 504kts
14-Apr-18 18:05 32.913092 -112.991483 78 35101ft 504kts
14-Apr-18 18:06 32.935858 -112.827166 78 35103ft 504kts
14-Apr-18 18:07 32.959459 -112.662971 73 35097ft 503kts
14-Apr-18 18:08 32.999149 -112.504432 69 35106ft 502kts
14-Apr-18 18:09 33.037902 -112.346965 66 35102ft 487kts
14-Apr-18 18:10 33.072286 -112.206193 66 35093ft 487kts
14-Apr-18 18:11 33.104142 -112.075393 66 35100ft 487kts
14-Apr-18 18:12 33.123465 -111.996222 66 35106ft 486kts
14-Apr-18 18:13 33.160601 -111.844591 66 35135ft 486kts
14-Apr-18 18:14 33.198487 -111.690567 65 35110ft 485kts
14-Apr-18 18:15 33.236390 -111.537243 65 35111ft 484kts
14-Apr-18 18:16 33.274605 -111.383369 65 35113ft 484kts
14-Apr-18 18:17 33.313024 -111.229532 65 35101ft 484kts
14-Apr-18 18:18 33.351497 -111.076091 65 35103ft 483kts
14-Apr-18 18:19 33.389651 -110.924528 65 35133ft 483kts
14-Apr-18 18:20 33.428216 -110.771938 64 35117ft 481kts
14-Apr-18 18:21 33.467149 -110.618472 64 35294ft 481kts
14-Apr-18 18:22 33.503496 -110.464504 66 35297ft 483kts
14-Apr-18 18:23 33.536994 -110.310557 67 35284ft 482kts
14-Apr-18 18:24 33.570767 -110.155093 66 35289ft 482kts
14-Apr-18 18:25 33.604508 -110.000509 66 35290ft 478kts
14-Apr-18 18:26 33.638534 -109.845506 66 35291ft 480kts
14-Apr-18 18:27 33.672593 -109.691175 66 35292ft 480kts
14-Apr-18 18:28 33.706783 -109.537088 65 35293ft 479kts
14-Apr-18 18:29 33.741169 -109.382962 65 35295ft 478kts
14-Apr-18 18:30 33.774950 -109.231919 63 35276ft 463kts
14-Apr-18 18:31 33.808340 -109.084383 63 35284ft 463kts
14-Apr-18 18:32 33.842082 -108.935559 63 35284ft 463kts
14-Apr-18 18:33 33.876139 -108.786062 62 35285ft 463kts
14-Apr-18 18:34 33.910271 -108.637006 62 35286ft 462kts
14-Apr-18 18:35 33.944571 -108.487967 62 35287ft 462kts
14-Apr-18 18:36 33.978073 -108.343114 63 35286ft 462kts
14-Apr-18 18:37 34.012608 -108.194566 62 35278ft 463kts
14-Apr-18 18:38 34.047359 -108.045772 62 35145ft 462kts
14-Apr-18 18:39 34.082406 -107.896473 62 35145ft 462kts
14-Apr-18 18:40 34.117309 -107.748492 62 35164ft 462kts
14-Apr-18 18:41 34.150875 -107.606825 62 35167ft 462kts
14-Apr-18 18:42 34.186291 -107.458055 62 35168ft 461kts
14-Apr-18 18:43 34.221583 -107.310504 62 35157ft 462kts
14-Apr-18 18:44 34.257447 -107.161238 62 35159ft 462kts
14-Apr-18 18:45 34.292722 -107.015025 62 35181ft 461kts
14-Apr-18 18:46 34.322732 -106.891122 62 35188ft 461kts
14-Apr-18 18:47 34.346294 -106.736252 78 35191ft 488kts
14-Apr-18 18:48 34.349119 -106.572903 77 35190ft 485kts
14-Apr-18 18:49 34.353914 -106.383108 77 35192ft 485kts
14-Apr-18 18:50 34.358283 -106.220444 77 35184ft 485kts
14-Apr-18 18:51 34.362829 -106.057961 77 35185ft 485kts
14-Apr-18 18:52 34.366797 -105.921932 77 35187ft 485kts
14-Apr-18 18:53 34.371734 -105.759364 77 35188ft 485kts
14-Apr-18 18:54 34.376881 -105.596863 76 35190ft 484kts
14-Apr-18 18:55 34.382244 -105.434185 76 35191ft 484kts
14-Apr-18 18:56 34.387838 -105.271753 76 35184ft 485kts
14-Apr-18 18:57 34.393640 -105.108994 76 35184ft 485kts
14-Apr-18 18:58 34.399632 -104.946507 76 35186ft 484kts
14-Apr-18 18:59 34.405854 -104.783484 76 35187ft 484kts
14-Apr-18 19:00 34.412255 -104.621273 76 35189ft 484kts
14-Apr-18 19:01 34.418871 -104.458868 75 35136ft 483kts
14-Apr-18 19:02 34.425710 -104.296528 76 35127ft 484kts
14-Apr-18 19:03 34.432735 -104.134927 76 35157ft 484kts
14-Apr-18 19:04 34.439985 -103.972336 75 35185ft 483kts
14-Apr-18 19:05 34.447425 -103.810031 75 35186ft 483kts
14-Apr-18 19:06 34.455067 -103.647729 75 35188ft 483kts
14-Apr-18 19:07 34.462895 -103.485699 75 35189ft 483kts
14-Apr-18 19:08 34.470900 -103.324135 75 35180ft 483kts
14-Apr-18 19:09 34.479166 -103.162098 75 35182ft 483kts
14-Apr-18 19:10 34.487606 -102.999673 75 35183ft 483kts
14-Apr-18 19:11 34.500192 -102.840645 88 35213ft 503kts
14-Apr-18 19:12 34.479926 -102.673775 87 35187ft 501kts
14-Apr-18 19:13 34.461896 -102.506871 87 35189ft 500kts
14-Apr-18 19:14 34.443975 -102.339646 87 35188ft 500kts
14-Apr-18 19:15 34.426117 -102.173167 87 35183ft 501kts
14-Apr-18 19:16 34.407974 -102.005998 87 35185ft 501kts
14-Apr-18 19:17 34.389641 -101.839169 87 35160ft 501kts
14-Apr-18 19:18 34.371051 -101.672116 87 35162ft 501kts
14-Apr-18 19:19 34.352238 -101.505188 87 35164ft 501kts
14-Apr-18 19:20 34.333153 -101.337989 88 35163ft 501kts
14-Apr-18 19:21 34.313996 -101.171285 88 35158ft 502kts
14-Apr-18 19:22 34.294558 -101.004309 88 35160ft 502kts
14-Apr-18 19:23 34.275191 -100.836825 98 35166ft 515kts
14-Apr-18 19:24 34.254353 -100.662515 99 35162ft 525kts
14-Apr-18 19:25 34.233170 -100.488098 99 35164ft 525kts
14-Apr-18 19:26 34.211777 -100.313984 100 35148ft 524kts
14-Apr-18 19:27 34.174338 -100.146213 115 35149ft 517kts
14-Apr-18 19:28 34.124108 -99.984266 114 35156ft 517kts
14-Apr-18 19:29 34.076400 -99.827625 118 35170ft 475kts
14-Apr-18 19:30 34.030240 -99.677717 118 35181ft 478kts
14-Apr-18 19:31 33.984022 -99.527877 118 35182ft 478kts
14-Apr-18 19:32 33.937570 -99.378359 118 35183ft 478kts
14-Apr-18 19:33 33.891342 -99.230374 119 35186ft 477kts
14-Apr-18 19:34 33.844386 -99.080732 119 35187ft 478kts
14-Apr-18 19:35 33.797493 -98.931991 119 35160ft 478kts
14-Apr-18 19:36 33.750252 -98.782889 119 35189ft 478kts
14-Apr-18 19:37 33.721024 -98.690716 119 35189ft 478kts
14-Apr-18 19:38 33.673135 -98.539972 119 33414ft 482kts
14-Apr-18 19:39 33.626516 -98.393394 120 30966ft 463kts
14-Apr-18 19:40 33.600991 -98.313466 120 29577ft 454kts
14-Apr-18 19:41 33.562402 -98.193115 119 27521ft 440kts
14-Apr-18 19:42 33.519063 -98.058705 118 25324ft 434kts
14-Apr-18 19:43 33.475127 -97.923416 116 23152ft 440kts
14-Apr-18 19:44 33.431266 -97.787467 116 20996ft 445kts
14-Apr-18 19:45 33.385771 -97.650149 122 18835ft 446kts
14-Apr-18 19:46 33.303645 -97.543950 140 16699ft 442kts
14-Apr-18 19:47 33.215201 -97.441550 138 14547ft 440kts
14-Apr-18 19:48 33.134490 -97.347655 138 12961ft 393kts
14-Apr-18 19:49 33.061373 -97.262541 137 11550ft 362kts
14-Apr-18 19:50 32.991898 -97.183519 147 10144ft 340kts
14-Apr-18 19:51 32.908036 -97.164607 179 9093ft 300kts
14-Apr-18 19:52 32.829480 -97.160924 178 8932ft 280kts
14-Apr-18 19:53 32.751472 -97.159337 180 7628ft 287kts
14-Apr-18 19:54 32.680235 -97.152797 141 6097ft 242kts
14-Apr-18 19:55 32.677525 -97.086061 63 5090ft 211kts
14-Apr-18 19:56 32.706822 -97.027994 34 4145ft 201kts
14-Apr-18 19:57 32.756172 -97.026671 359 3037ft 169kts
14-Apr-18 19:58 32.797994 -97.026598 0 2215ft 141kts
14-Apr-18 19:59 32.835880 -97.026248 359 1408ft 139kts
14-Apr-18 20:00 32.873531 -97.026263 0 746ft 137kts
14-Apr-18 20:01 32.895855 -97.026111 0 614ft 34kts
14-Apr-18 20:02 32.901069 -97.030380 269 614ft 24kts
14-Apr-18 20:03 32.900577 -97.037156 189 613ft 9kts
14-Apr-18 20:04 32.900343 -97.037199 188 613ft 0kts
14-Apr-18 20:05 32.900343 -97.037199 188 613ft 0kts
14-Apr-18 20:06 32.900343 -97.037199 188 613ft 0kts
14-Apr-18 20:07 32.900343 -97.037199 188 613ft 0kts
14-Apr-18 20:08 32.900343 -97.037199 188 613ft 0kts

Navigation Log

Ident Type
Flight plan parsing failed, navigation log unavailable